createdAt,value
2018-11-23T00:05:04.846Z,29.00
2018-11-23T00:15:21.401Z,27.47
2018-11-23T00:25:36.283Z,27.70
2018-11-23T00:35:51.853Z,29.03
2018-11-23T00:46:07.374Z,29.33
2018-11-23T00:56:22.344Z,28.52
2018-11-23T01:06:36.965Z,28.93
2018-11-23T01:16:52.778Z,28.47
2018-11-23T01:27:08.520Z,26.50
2018-11-23T01:37:24.237Z,27.13
2018-11-23T01:47:46.030Z,26.67
2018-11-23T01:58:01.627Z,26.10
2018-11-23T02:08:16.470Z,24.03
2018-11-23T02:18:31.210Z,24.73
2018-11-23T02:28:46.562Z,23.77
2018-11-23T02:39:01.330Z,25.43
2018-11-23T02:49:17.002Z,25.67
2018-11-23T02:59:32.544Z,25.30
2018-11-23T03:09:47.360Z,24.30
2018-11-23T03:20:02.733Z,25.07
2018-11-23T03:30:22.390Z,24.80
2018-11-23T03:40:37.929Z,24.73
2018-11-23T03:50:53.404Z,25.50
2018-11-23T04:01:08.947Z,24.95
2018-11-23T04:11:23.776Z,25.13
2018-11-23T04:21:39.400Z,25.07
2018-11-23T04:31:54.673Z,25.80
2018-11-23T04:42:10.469Z,25.90
2018-11-23T04:52:26.211Z,25.07
2018-11-23T05:02:41.536Z,26.83
2018-11-23T05:12:57.461Z,25.93
2018-11-23T05:23:12.227Z,25.97
2018-11-23T05:33:27.637Z,26.30
2018-11-23T05:43:43.315Z,26.37
2018-11-23T05:53:58.289Z,25.87
2018-11-23T06:04:13.641Z,27.60
2018-11-23T06:14:28.472Z,25.63
2018-11-23T06:24:43.168Z,24.97
2018-11-23T06:34:58.986Z,27.27
2018-11-23T06:45:14.276Z,25.87
2018-11-23T06:55:30.264Z,27.83
2018-11-23T07:05:45.625Z,27.40
2018-11-23T07:16:01.101Z,26.50
2018-11-23T07:26:16.068Z,27.17
2018-11-23T07:36:31.434Z,26.70
2018-11-23T07:46:46.627Z,26.52
2018-11-23T07:57:01.873Z,28.62
2018-11-23T08:07:17.206Z,27.03
2018-11-23T08:17:32.891Z,27.27
2018-11-23T08:27:49.346Z,28.67
2018-11-23T08:38:05.668Z,28.13
2018-11-23T08:48:23.203Z,28.63
2018-11-23T08:58:39.122Z,27.37
2018-11-23T09:08:54.614Z,27.20
2018-11-23T09:19:11.621Z,27.02
2018-11-23T09:29:26.636Z,26.80
2018-11-23T09:39:43.949Z,29.47
2018-11-23T09:50:05.448Z,29.27
2018-11-23T10:00:23.501Z,27.97
2018-11-23T10:10:39.518Z,28.03
2018-11-23T10:20:55.558Z,28.43
2018-11-23T10:31:10.708Z,28.33
2018-11-23T10:41:27.030Z,27.97
2018-11-23T10:51:43.112Z,27.93
2018-11-23T11:02:03.327Z,28.17
2018-11-23T11:12:18.156Z,28.00
2018-11-23T11:22:33.734Z,28.07
2018-11-23T11:32:49.418Z,26.00
2018-11-23T11:43:04.236Z,24.77
2018-11-23T11:53:19.905Z,27.65
2018-11-23T12:03:35.181Z,26.30
2018-11-23T12:13:50.796Z,24.35
2018-11-23T12:24:07.850Z,25.37
2018-11-23T12:34:23.108Z,25.47
2018-11-23T12:44:38.616Z,25.00
2018-11-23T12:54:54.096Z,22.97
2018-11-23T13:05:09.829Z,23.83
2018-11-23T13:15:25.588Z,24.07
2018-11-23T13:25:41.611Z,24.17
2018-11-23T13:35:56.684Z,24.80
2018-11-23T13:46:12.926Z,25.10
2018-11-23T13:56:27.762Z,28.03
2018-11-23T14:06:44.353Z,26.33
2018-11-23T14:17:01.305Z,26.63
2018-11-23T14:27:16.159Z,27.07
2018-11-23T14:37:31.308Z,29.10
2018-11-23T14:47:47.142Z,27.77
2018-11-23T14:58:02.247Z,26.80
2018-11-23T15:08:19.458Z,29.07
2018-11-23T15:18:34.276Z,26.83
2018-11-23T15:28:49.290Z,28.90
2018-11-23T15:39:07.968Z,26.37
2018-11-23T15:49:22.842Z,28.10
2018-11-23T15:59:38.388Z,35.33
2018-11-23T16:09:53.487Z,28.67
2018-11-23T16:20:11.083Z,27.50
2018-11-23T16:30:31.340Z,28.37
2018-11-23T16:40:47.996Z,29.80
2018-11-23T16:51:03.128Z,32.23
2018-11-23T17:01:19.092Z,31.12
2018-11-23T17:11:34.280Z,31.47
2018-11-23T17:21:49.835Z,33.00
2018-11-23T17:32:05.474Z,33.40
2018-11-23T17:42:21.147Z,31.53
2018-11-23T17:52:36.851Z,33.40
2018-11-23T18:02:53.202Z,33.57
2018-11-23T18:13:09.056Z,31.33
2018-11-23T18:23:24.121Z,32.97
2018-11-23T18:33:39.604Z,32.60
2018-11-23T18:43:55.216Z,33.23
2018-11-23T18:54:10.866Z,32.42
2018-11-23T19:04:26.479Z,32.60
2018-11-23T19:14:42.227Z,32.63
2018-11-23T19:24:57.350Z,33.90
2018-11-23T19:35:12.777Z,30.50
2018-11-23T19:45:28.413Z,31.50
2018-11-23T19:55:44.851Z,31.60
2018-11-23T20:06:00.051Z,31.10
2018-11-23T20:16:15.410Z,32.25
2018-11-23T20:26:30.744Z,31.37
2018-11-23T20:36:46.490Z,30.33
2018-11-23T20:47:02.306Z,30.27
2018-11-23T20:57:17.885Z,29.67
2018-11-23T21:07:33.882Z,27.43
2018-11-23T21:17:49.241Z,27.13
2018-11-23T21:28:04.306Z,25.10
2018-11-23T21:38:19.871Z,21.68
2018-11-23T21:48:35.467Z,22.13
2018-11-23T21:58:50.837Z,21.20
2018-11-23T22:09:07.260Z,22.13
2018-11-23T22:19:21.934Z,20.83
2018-11-23T22:29:37.521Z,21.42
2018-11-23T22:39:52.708Z,20.47
2018-11-23T22:50:10.059Z,22.70
2018-11-23T23:00:30.448Z,21.77
2018-11-23T23:10:46.394Z,22.07
2018-11-23T23:21:01.890Z,22.10
2018-11-23T23:31:22.477Z,21.97
2018-11-23T23:41:37.711Z,21.60
2018-11-23T23:51:53.379Z,21.17
